createdAt,value
2022-11-22T00:00:25.231Z,0.50
2022-11-22T00:02:52.432Z,0.75
2022-11-22T00:05:19.858Z,0.47
2022-11-22T00:07:47.036Z,0.93
2022-11-22T00:10:14.524Z,0.82
2022-11-22T00:12:41.749Z,0.57
2022-11-22T00:15:09.346Z,0.60
2022-11-22T00:17:36.179Z,0.80
2022-11-22T00:20:03.720Z,0.57
2022-11-22T00:22:31.224Z,0.50
2022-11-22T00:24:58.189Z,0.50
2022-11-22T00:27:25.033Z,0.73
2022-11-22T00:29:51.835Z,0.70
2022-11-22T00:32:18.605Z,0.90
2022-11-22T00:34:45.382Z,0.60
2022-11-22T00:37:12.243Z,0.90
2022-11-22T00:39:39.017Z,0.93
2022-11-22T00:42:05.832Z,0.50
2022-11-22T00:44:32.581Z,0.70
2022-11-22T00:46:59.334Z,0.75
2022-11-22T00:49:26.251Z,0.43
2022-11-22T00:51:53.053Z,0.40
2022-11-22T00:54:19.806Z,0.50
2022-11-22T00:56:46.569Z,0.60
2022-11-22T00:59:13.526Z,0.55
2022-11-22T01:01:40.396Z,1.10
2022-11-22T01:04:07.313Z,0.50
2022-11-22T01:06:34.093Z,0.55
2022-11-22T01:09:00.933Z,0.55
2022-11-22T01:11:28.050Z,0.60
2022-11-22T01:13:55.044Z,0.60
2022-11-22T01:16:21.824Z,0.68
2022-11-22T01:18:48.659Z,0.63
2022-11-22T01:21:15.510Z,0.73
2022-11-22T01:23:42.311Z,0.50
2022-11-22T01:26:09.304Z,0.50
2022-11-22T01:28:36.726Z,0.50
2022-11-22T01:31:03.596Z,0.50
2022-11-22T01:33:30.463Z,0.50
2022-11-22T01:35:58.324Z,0.45
2022-11-22T01:38:25.360Z,0.57
2022-11-22T01:40:52.920Z,0.40
2022-11-22T01:43:21.209Z,0.38
2022-11-22T01:45:52.514Z,0.63
2022-11-22T01:48:22.585Z,0.43
2022-11-22T01:50:52.516Z,0.45
2022-11-22T01:53:22.528Z,0.22
2022-11-22T01:55:51.297Z,0.50
2022-11-22T01:58:18.910Z,0.25
2022-11-22T02:00:45.856Z,0.40
2022-11-22T02:03:14.655Z,0.60
2022-11-22T02:05:41.585Z,0.52
2022-11-22T02:08:17.772Z,0.30
2022-11-22T02:10:46.846Z,0.85
2022-11-22T02:13:14.712Z,0.60
2022-11-22T02:15:42.240Z,0.40
2022-11-22T02:18:09.997Z,0.60
2022-11-22T02:20:38.272Z,0.40
2022-11-22T02:23:12.509Z,0.68
2022-11-22T02:25:42.099Z,0.45
2022-11-22T02:28:09.302Z,0.50
2022-11-22T02:30:36.593Z,0.75
2022-11-22T02:33:03.678Z,0.45
2022-11-22T02:35:30.778Z,0.50
2022-11-22T02:37:58.803Z,0.40
2022-11-22T02:40:26.621Z,0.60
2022-11-22T02:42:59.620Z,0.40
2022-11-22T02:45:26.385Z,0.60
2022-11-22T02:47:53.153Z,0.57
2022-11-22T02:50:19.950Z,0.50
2022-11-22T02:52:46.711Z,0.35
2022-11-22T02:55:13.510Z,0.22
2022-11-22T02:57:40.311Z,0.60
2022-11-22T03:00:07.343Z,0.38
2022-11-22T03:02:34.134Z,0.65
2022-11-22T03:05:00.974Z,0.50
2022-11-22T03:07:27.747Z,0.30
2022-11-22T03:09:54.588Z,0.63
2022-11-22T03:12:21.366Z,0.40
2022-11-22T03:14:48.163Z,0.30
2022-11-22T03:17:16.152Z,0.60
2022-11-22T03:19:43.294Z,0.35
2022-11-22T03:22:11.728Z,0.25
2022-11-22T03:24:38.651Z,0.52
2022-11-22T03:27:05.439Z,0.32
2022-11-22T03:29:32.486Z,0.60
2022-11-22T03:31:59.394Z,0.30
2022-11-22T03:34:26.173Z,0.40
2022-11-22T03:36:53.015Z,0.40
2022-11-22T03:39:19.772Z,0.30
2022-11-22T03:41:46.549Z,0.47
2022-11-22T03:44:13.332Z,0.50
2022-11-22T03:46:40.201Z,0.50
2022-11-22T03:49:07.014Z,0.25
2022-11-22T03:51:33.771Z,0.68
2022-11-22T03:54:00.601Z,0.40
2022-11-22T03:56:27.404Z,0.50
2022-11-22T03:58:54.124Z,0.35
2022-11-22T04:01:20.954Z,0.60
2022-11-22T04:03:47.901Z,0.65
2022-11-22T04:06:14.755Z,0.57
2022-11-22T04:08:41.606Z,0.52
2022-11-22T04:11:08.479Z,0.40
2022-11-22T04:13:53.875Z,0.60
2022-11-22T04:16:20.661Z,0.30
2022-11-22T04:18:47.420Z,0.20
2022-11-22T04:21:33.249Z,0.28
2022-11-22T04:24:19.883Z,0.30
2022-11-22T04:26:47.002Z,0.63
2022-11-22T04:29:13.788Z,1.13
2022-11-22T04:31:59.119Z,0.70
2022-11-22T04:34:25.922Z,0.70
2022-11-22T04:36:52.669Z,0.50
2022-11-22T04:39:19.574Z,0.57
2022-11-22T04:41:46.386Z,0.43
2022-11-22T04:44:31.787Z,0.45
2022-11-22T04:46:58.603Z,0.30
2022-11-22T04:49:25.453Z,0.30
2022-11-22T04:52:10.856Z,0.38
2022-11-22T04:54:37.657Z,0.80
2022-11-22T04:57:04.422Z,0.63
2022-11-22T04:59:31.477Z,0.40
2022-11-22T05:01:58.465Z,0.60
2022-11-22T05:04:25.234Z,0.40
2022-11-22T05:06:52.023Z,1.00
2022-11-22T05:09:18.801Z,0.80
2022-11-22T05:11:45.597Z,0.43
2022-11-22T05:14:12.398Z,0.40
2022-11-22T05:16:39.173Z,0.45
2022-11-22T05:19:06.020Z,0.40
2022-11-22T05:21:35.630Z,0.55
2022-11-22T05:24:03.017Z,0.82
2022-11-22T05:26:34.028Z,0.82
2022-11-22T05:29:08.357Z,0.70
2022-11-22T05:31:35.830Z,0.40
2022-11-22T05:34:03.025Z,0.63
2022-11-22T05:36:31.821Z,0.55
2022-11-22T05:38:58.610Z,0.88
2022-11-22T05:41:25.345Z,0.55
2022-11-22T05:43:53.877Z,0.60
2022-11-22T05:46:24.835Z,0.50
2022-11-22T05:48:52.753Z,0.63
2022-11-22T05:51:21.072Z,0.40
2022-11-22T05:53:47.886Z,0.35
2022-11-22T05:56:18.980Z,0.40
2022-11-22T05:58:45.824Z,0.40
2022-11-22T06:01:14.277Z,0.50
2022-11-22T06:03:41.536Z,0.45
2022-11-22T06:06:09.003Z,0.50
2022-11-22T06:08:36.901Z,0.45
2022-11-22T06:11:05.062Z,0.43
2022-11-22T06:13:38.704Z,0.70
2022-11-22T06:16:06.495Z,0.60
2022-11-22T06:18:33.646Z,0.68
2022-11-22T06:21:01.121Z,0.50
2022-11-22T06:23:28.096Z,0.28
2022-11-22T06:25:59.190Z,0.60
2022-11-22T06:28:27.010Z,0.40
2022-11-22T06:30:53.830Z,0.88
2022-11-22T06:33:20.986Z,0.57
2022-11-22T06:35:47.795Z,0.50
2022-11-22T06:38:14.632Z,0.47
2022-11-22T06:40:41.681Z,0.40
2022-11-22T06:43:08.572Z,0.45
2022-11-22T06:45:35.317Z,0.60
2022-11-22T06:48:02.327Z,0.40
2022-11-22T06:50:29.161Z,0.50
2022-11-22T06:52:55.917Z,0.30
2022-11-22T06:55:49.190Z,0.50
2022-11-22T06:58:09.501Z,0.60
2022-11-22T07:00:36.249Z,0.57
2022-11-22T07:03:03.141Z,0.50
2022-11-22T07:05:30.002Z,0.77
2022-11-22T07:08:02.820Z,0.40
2022-11-22T07:10:32.373Z,0.40
2022-11-22T07:12:59.138Z,0.50
2022-11-22T07:15:25.958Z,0.60
2022-11-22T07:17:52.737Z,0.22
2022-11-22T07:20:19.505Z,0.55
2022-11-22T07:22:47.298Z,0.50
2022-11-22T07:25:14.137Z,0.52
2022-11-22T07:27:40.884Z,0.20
2022-11-22T07:30:08.138Z,0.50
2022-11-22T07:32:34.956Z,0.40
2022-11-22T07:35:01.686Z,0.50
2022-11-22T07:37:30.640Z,0.50
2022-11-22T07:39:57.590Z,0.70
2022-11-22T07:42:26.279Z,0.40
2022-11-22T07:44:53.900Z,0.50
2022-11-22T07:47:23.059Z,0.50
2022-11-22T07:49:50.112Z,0.50
2022-11-22T07:52:16.879Z,0.28
2022-11-22T07:54:43.684Z,0.40
2022-11-22T07:57:10.463Z,0.50
2022-11-22T07:59:37.241Z,0.50
2022-11-22T08:02:04.116Z,0.80
2022-11-22T08:04:30.934Z,0.82
2022-11-22T08:06:57.681Z,0.77
2022-11-22T08:09:24.502Z,0.80
2022-11-22T08:11:51.247Z,0.80
2022-11-22T08:14:18.001Z,0.93
2022-11-22T08:16:44.979Z,1.10
2022-11-22T08:19:16.064Z,0.70
2022-11-22T08:21:43.214Z,0.60
2022-11-22T08:24:09.999Z,0.63
2022-11-22T08:26:36.890Z,0.68
2022-11-22T08:29:06.120Z,0.52
2022-11-22T08:31:34.639Z,0.82
2022-11-22T08:34:01.704Z,0.85
2022-11-22T08:36:28.798Z,0.80
2022-11-22T08:38:55.855Z,1.02
2022-11-22T08:41:22.665Z,0.85
2022-11-22T08:43:50.621Z,0.63
2022-11-22T08:46:17.609Z,0.93
2022-11-22T08:48:44.830Z,0.63
2022-11-22T08:51:12.898Z,1.10
2022-11-22T08:53:41.032Z,1.00
2022-11-22T08:56:12.295Z,0.80
2022-11-22T08:58:39.173Z,0.63
2022-11-22T09:01:07.102Z,0.60
2022-11-22T09:03:35.294Z,1.33
2022-11-22T09:09:02.908Z,0.90
2022-11-22T09:11:35.843Z,0.60
2022-11-22T09:14:02.627Z,0.68
2022-11-22T09:16:29.425Z,0.60
2022-11-22T09:18:56.169Z,0.57
2022-11-22T09:21:22.967Z,0.60
2022-11-22T09:23:50.493Z,0.43
2022-11-22T09:26:18.711Z,0.70
2022-11-22T09:28:45.737Z,0.43
2022-11-22T09:31:13.872Z,0.65
2022-11-22T09:33:41.211Z,0.40
2022-11-22T09:36:09.495Z,0.57
2022-11-22T09:38:36.621Z,0.57
2022-11-22T09:41:12.516Z,0.50
2022-11-22T09:43:51.896Z,0.50
2022-11-22T09:46:24.202Z,0.55
2022-11-22T09:48:50.940Z,0.88
2022-11-22T09:51:19.788Z,0.60
2022-11-22T09:53:46.777Z,0.50
2022-11-22T09:56:15.710Z,0.75
2022-11-22T09:58:46.589Z,0.80
2022-11-22T10:01:34.246Z,1.00
2022-11-22T10:04:10.751Z,0.70
2022-11-22T10:06:40.211Z,1.00
2022-11-22T10:09:27.901Z,0.80
2022-11-22T10:11:57.576Z,0.70
2022-11-22T10:14:32.123Z,1.08
2022-11-22T10:17:13.284Z,0.90
2022-11-22T10:19:44.570Z,0.90
2022-11-22T10:22:13.027Z,1.00
2022-11-22T10:24:39.945Z,1.20
2022-11-22T10:27:11.863Z,1.00
2022-11-22T10:29:46.841Z,1.00
2022-11-22T10:32:27.530Z,0.90
2022-11-22T10:34:57.332Z,1.45
2022-11-22T10:37:26.884Z,0.70
2022-11-22T10:40:02.808Z,0.70
2022-11-22T10:42:33.083Z,0.80
2022-11-22T10:45:18.469Z,0.98
2022-11-22T10:48:04.052Z,0.77
2022-11-22T10:50:46.175Z,1.00
2022-11-22T10:53:25.354Z,0.80
2022-11-22T10:55:57.870Z,0.75
2022-11-22T10:58:30.513Z,0.68
2022-11-22T11:01:01.827Z,0.95
2022-11-22T11:03:39.845Z,0.75
2022-11-22T11:06:37.961Z,0.85
2022-11-22T11:10:09.611Z,0.73
2022-11-22T11:12:19.723Z,0.50
2022-11-22T11:14:48.191Z,0.45
2022-11-22T11:17:19.095Z,0.63
2022-11-22T11:19:47.704Z,0.70
2022-11-22T11:22:50.443Z,0.70
2022-11-22T11:25:30.700Z,0.60
2022-11-22T11:27:59.749Z,0.70
2022-11-22T11:30:26.589Z,0.70
2022-11-22T11:32:54.520Z,0.52
2022-11-22T11:35:22.861Z,0.68
2022-11-22T11:37:49.685Z,0.50
2022-11-22T11:40:27.406Z,0.68
2022-11-22T11:45:28.349Z,0.35
2022-11-22T11:47:55.498Z,0.45
2022-11-22T11:50:24.588Z,0.30
2022-11-22T11:53:03.666Z,0.47
2022-11-22T11:55:31.076Z,0.50
2022-11-22T11:57:57.977Z,0.60
2022-11-22T12:00:26.938Z,0.47
2022-11-22T12:03:00.876Z,0.50
2022-11-22T12:05:31.994Z,0.50
2022-11-22T12:07:59.026Z,0.60
2022-11-22T12:10:30.563Z,0.82
2022-11-22T12:15:52.036Z,0.60
2022-11-22T12:18:37.361Z,0.40
2022-11-22T12:21:12.931Z,0.88
2022-11-22T12:23:50.742Z,0.70
2022-11-22T12:26:18.291Z,0.57
2022-11-22T12:28:45.183Z,1.08
2022-11-22T12:31:25.481Z,0.57
2022-11-22T12:34:00.831Z,0.70
2022-11-22T12:36:40.053Z,1.00
2022-11-22T12:39:09.366Z,0.45
2022-11-22T12:41:36.560Z,0.70
2022-11-22T12:44:04.907Z,0.60
2022-11-22T12:46:31.734Z,0.60
2022-11-22T12:48:58.456Z,0.75
2022-11-22T12:51:31.697Z,0.57
2022-11-22T12:54:00.862Z,0.70
2022-11-22T12:56:33.348Z,0.90
2022-11-22T12:59:03.653Z,0.80
2022-11-22T13:01:36.030Z,0.90
2022-11-22T13:04:09.228Z,0.60
2022-11-22T13:06:39.001Z,0.60
2022-11-22T13:09:07.093Z,0.50
2022-11-22T13:11:45.183Z,0.73
2022-11-22T13:14:21.022Z,0.80
2022-11-22T13:16:49.482Z,0.93
2022-11-22T13:19:17.078Z,0.70
2022-11-22T13:22:02.901Z,1.27
2022-11-22T13:24:35.793Z,1.00
2022-11-22T13:27:08.215Z,1.23
2022-11-22T13:29:36.182Z,1.02
2022-11-22T13:32:07.828Z,0.63
2022-11-22T13:34:36.335Z,1.10
2022-11-22T13:37:06.770Z,0.90
2022-11-22T13:39:34.672Z,0.98
2022-11-22T13:42:03.378Z,1.13
2022-11-22T13:44:30.353Z,1.23
2022-11-22T13:47:02.228Z,0.90
2022-11-22T13:49:35.270Z,0.77
2022-11-22T13:52:05.619Z,1.20
2022-11-22T13:54:32.953Z,1.30
2022-11-22T13:57:01.757Z,1.17
2022-11-22T13:59:28.875Z,1.20
2022-11-22T14:01:57.229Z,1.20
2022-11-22T14:04:24.689Z,1.40
2022-11-22T14:07:02.761Z,1.00
2022-11-22T14:09:53.689Z,0.68
2022-11-22T14:12:20.456Z,0.60
2022-11-22T14:15:06.052Z,0.70
2022-11-22T14:17:41.781Z,0.82
2022-11-22T14:20:27.877Z,1.00
2022-11-22T14:23:02.274Z,1.15
2022-11-22T14:25:41.056Z,1.00
2022-11-22T14:28:12.615Z,1.00
2022-11-22T14:30:43.908Z,0.93
2022-11-22T14:33:15.822Z,1.20
2022-11-22T14:36:11.866Z,1.30
2022-11-22T14:38:40.129Z,1.40
2022-11-22T14:41:25.805Z,1.27
2022-11-22T14:43:53.571Z,1.42
2022-11-22T14:46:51.131Z,1.00
2022-11-22T14:49:13.237Z,1.17
2022-11-22T14:51:40.077Z,1.00
2022-11-22T14:54:25.104Z,1.15
2022-11-22T14:56:52.118Z,1.30
2022-11-22T14:59:18.881Z,1.30
2022-11-22T15:02:04.742Z,1.10
2022-11-22T15:09:20.085Z,1.10
2022-11-22T15:09:20.994Z,0.85
2022-11-22T15:10:23.748Z,1.38
2022-11-22T15:13:03.689Z,1.13
2022-11-22T15:58:23.098Z,1.48
2022-11-22T16:00:49.986Z,1.30
2022-11-22T16:03:27.503Z,1.08
2022-11-22T16:06:06.047Z,1.30
2022-11-22T16:08:38.488Z,1.00
2022-11-22T16:11:05.789Z,1.10
2022-11-22T16:13:33.804Z,1.85
2022-11-22T16:16:16.308Z,1.80
2022-11-22T16:18:43.737Z,1.50
2022-11-22T16:21:11.243Z,1.65
2022-11-22T16:23:38.926Z,1.80
2022-11-22T16:26:20.340Z,1.70
2022-11-22T16:28:47.817Z,1.90
2022-11-22T16:31:31.141Z,1.42
2022-11-22T16:33:58.393Z,1.80
2022-11-22T16:36:28.063Z,1.63
2022-11-22T16:38:54.993Z,1.83
2022-11-22T16:41:23.087Z,1.70
2022-11-22T16:43:52.229Z,2.17
2022-11-22T16:46:19.214Z,2.00
2022-11-22T16:48:46.275Z,1.90
2022-11-22T16:51:13.020Z,1.60
2022-11-22T16:53:47.089Z,1.50
2022-11-22T16:56:20.042Z,1.80
2022-11-22T16:58:47.666Z,1.75
2022-11-22T17:01:19.050Z,1.75
2022-11-22T17:03:47.038Z,1.63
2022-11-22T17:06:16.531Z,1.70
2022-11-22T17:08:43.357Z,1.58
2022-11-22T17:11:10.920Z,2.50
2022-11-22T17:13:37.776Z,1.88
2022-11-22T17:16:04.768Z,1.80
2022-11-22T17:18:31.596Z,2.00
2022-11-22T17:20:58.867Z,2.80
2022-11-22T17:23:29.301Z,2.65
2022-11-22T17:25:56.090Z,2.50
2022-11-22T17:28:23.143Z,2.38
2022-11-22T17:30:50.451Z,2.40
2022-11-22T17:33:17.422Z,2.50
2022-11-22T17:35:44.214Z,2.30
2022-11-22T17:38:11.403Z,2.15
2022-11-22T17:40:38.326Z,2.92
2022-11-22T17:43:05.135Z,2.30
2022-11-22T17:45:32.038Z,2.78
2022-11-22T17:47:58.851Z,2.60
2022-11-22T17:50:25.643Z,2.95
2022-11-22T17:52:52.838Z,3.30
2022-11-22T17:55:19.631Z,3.90
2022-11-22T17:57:47.833Z,3.22
2022-11-22T18:00:16.491Z,3.53
2022-11-22T18:02:43.392Z,3.50
2022-11-22T18:05:10.310Z,3.88
2022-11-22T18:07:39.084Z,3.50
2022-11-22T18:10:06.648Z,3.90
2022-11-22T18:12:42.079Z,3.83
2022-11-22T18:15:09.600Z,3.33
2022-11-22T18:17:36.424Z,3.80
2022-11-22T18:20:03.317Z,2.95
2022-11-22T18:22:30.153Z,3.30
2022-11-22T18:24:57.017Z,4.05
2022-11-22T18:27:23.894Z,2.92
2022-11-22T18:29:51.372Z,3.63
2022-11-22T18:32:18.447Z,3.33
2022-11-22T18:34:47.854Z,3.40
2022-11-22T18:37:15.073Z,3.42
2022-11-22T18:39:41.961Z,3.33
2022-11-22T18:42:12.089Z,4.18
2022-11-22T18:44:39.014Z,3.53
2022-11-22T18:47:05.917Z,3.50
2022-11-22T18:49:33.234Z,3.75
2022-11-22T18:52:00.555Z,3.85
2022-11-22T18:54:27.328Z,3.13
2022-11-22T18:56:54.094Z,3.67
2022-11-22T18:59:20.885Z,3.45
2022-11-22T19:01:47.697Z,2.90
2022-11-22T19:04:15.225Z,3.55
2022-11-22T19:06:42.497Z,3.38
2022-11-22T19:09:09.697Z,3.60
2022-11-22T19:11:36.572Z,3.50
2022-11-22T19:14:03.726Z,3.67
2022-11-22T19:16:30.673Z,3.65
2022-11-22T19:18:58.159Z,3.30
2022-11-22T19:21:26.840Z,4.07
2022-11-22T19:23:54.246Z,3.33
2022-11-22T19:26:22.562Z,3.40
2022-11-22T19:28:50.038Z,3.75
2022-11-22T19:31:18.086Z,3.60
2022-11-22T19:33:45.725Z,3.70
2022-11-22T19:36:32.134Z,3.63
2022-11-22T19:38:59.614Z,5.97
2022-11-22T19:41:26.841Z,6.70
2022-11-22T19:43:55.530Z,4.95
2022-11-22T19:46:22.311Z,3.92
2022-11-22T19:48:52.754Z,4.40
2022-11-22T19:51:20.033Z,5.25
2022-11-22T19:53:46.811Z,5.90
2022-11-22T19:56:15.139Z,5.22
2022-11-22T19:58:48.973Z,5.70
2022-11-22T20:01:16.682Z,5.72
2022-11-22T20:03:43.896Z,5.75
2022-11-22T20:06:11.553Z,5.50
2022-11-22T20:08:38.600Z,5.97
2022-11-22T20:11:06.690Z,6.07
2022-11-22T20:13:34.348Z,6.15
2022-11-22T20:16:06.104Z,6.05
2022-11-22T20:18:33.085Z,5.95
2022-11-22T20:21:01.030Z,5.22
2022-11-22T20:23:28.411Z,5.25
2022-11-22T20:26:00.101Z,6.90
2022-11-22T20:30:53.636Z,4.88
2022-11-22T20:33:20.390Z,6.20
2022-11-22T20:35:47.470Z,5.85
2022-11-22T20:38:15.580Z,5.55
2022-11-22T20:40:45.387Z,6.10
2022-11-22T20:43:12.181Z,5.50
2022-11-22T20:45:38.983Z,6.43
2022-11-22T20:48:05.988Z,5.90
2022-11-22T20:50:32.752Z,7.70
2022-11-22T20:52:59.557Z,7.13
2022-11-22T20:55:26.354Z,8.13
2022-11-22T20:57:53.113Z,6.75
2022-11-22T21:00:20.029Z,7.15
2022-11-22T21:02:46.792Z,7.20
2022-11-22T21:05:13.927Z,7.05
2022-11-22T21:07:40.721Z,7.07
2022-11-22T21:10:07.731Z,7.53
2022-11-22T21:12:34.533Z,6.40
2022-11-22T21:15:01.383Z,7.32
2022-11-22T21:17:50.249Z,8.23
2022-11-22T21:20:16.319Z,6.78
2022-11-22T21:22:43.135Z,8.00
2022-11-22T21:25:09.995Z,8.23
2022-11-22T21:27:36.822Z,8.45
2022-11-22T21:30:03.783Z,7.78
2022-11-22T21:32:33.591Z,8.38
2022-11-22T21:35:00.517Z,8.95
2022-11-22T21:37:27.306Z,8.30
2022-11-22T21:39:54.065Z,8.70
2022-11-22T21:42:20.881Z,8.02
2022-11-22T21:44:47.730Z,9.88
2022-11-22T21:47:14.565Z,7.70
2022-11-22T21:49:41.402Z,10.43
2022-11-22T21:52:08.208Z,10.85
2022-11-22T21:54:37.156Z,11.10
2022-11-22T21:57:05.117Z,11.93
2022-11-22T21:59:32.588Z,11.95
2022-11-22T22:02:00.163Z,12.02
2022-11-22T22:04:27.191Z,11.30
2022-11-22T22:06:53.940Z,12.30
2022-11-22T22:09:20.713Z,12.27
2022-11-22T22:11:47.944Z,12.38
2022-11-22T22:14:14.921Z,13.13
2022-11-22T22:16:41.692Z,11.88
2022-11-22T22:19:09.613Z,11.13
2022-11-22T22:21:36.525Z,10.90
2022-11-22T22:24:03.955Z,11.10
2022-11-22T22:26:32.626Z,9.20
2022-11-22T22:28:59.414Z,9.65
2022-11-22T22:31:26.976Z,8.65
2022-11-22T22:33:54.465Z,9.85
2022-11-22T22:36:21.812Z,10.05
2022-11-22T22:38:48.650Z,9.55
2022-11-22T22:41:15.530Z,7.25
2022-11-22T22:43:43.696Z,7.75
2022-11-22T22:46:14.965Z,6.57
2022-11-22T22:48:42.274Z,7.20
2022-11-22T22:51:12.058Z,6.38
2022-11-22T22:53:38.877Z,7.07
2022-11-22T22:56:06.899Z,6.35
2022-11-22T22:58:33.837Z,6.80
2022-11-22T23:01:04.858Z,6.25
2022-11-22T23:03:32.165Z,5.63
2022-11-22T23:05:59.016Z,5.85
2022-11-22T23:08:25.840Z,5.57
2022-11-22T23:10:52.624Z,5.10
2022-11-22T23:13:19.365Z,4.53
2022-11-22T23:15:57.809Z,5.72
2022-11-22T23:18:25.570Z,5.30
2022-11-22T23:20:52.394Z,5.63
2022-11-22T23:23:19.194Z,4.57
2022-11-22T23:25:46.000Z,5.60
2022-11-22T23:28:12.814Z,5.63
2022-11-22T23:30:39.595Z,3.00
2022-11-22T23:33:06.891Z,2.50
2022-11-22T23:35:37.297Z,2.83
2022-11-22T23:38:04.095Z,2.92
2022-11-22T23:40:31.163Z,3.08
2022-11-22T23:42:58.518Z,2.58
2022-11-22T23:45:25.599Z,2.70
2022-11-22T23:47:52.692Z,2.50
2022-11-22T23:50:19.838Z,2.70
2022-11-22T23:52:46.591Z,2.58
2022-11-22T23:55:13.414Z,2.38
2022-11-22T23:57:40.178Z,3.45
